createdAt,value
2023-01-19T00:02:15.081Z,91.80
2023-01-19T00:04:50.338Z,92.46
2023-01-19T00:07:20.478Z,91.75
2023-01-19T00:10:00.739Z,90.79
2023-01-19T00:12:47.821Z,92.02
2023-01-19T00:15:19.368Z,90.63
2023-01-19T00:17:48.440Z,90.10
2023-01-19T00:20:27.563Z,90.09
2023-01-19T00:23:36.253Z,90.57
2023-01-19T00:26:04.491Z,90.84
2023-01-19T00:28:52.262Z,89.75
2023-01-19T00:31:49.683Z,90.56
2023-01-19T00:34:17.040Z,89.90
2023-01-19T00:37:10.650Z,89.96
2023-01-19T00:39:47.430Z,89.41
2023-01-19T00:42:34.099Z,88.83
2023-01-19T00:45:01.766Z,89.06
2023-01-19T00:47:31.476Z,88.82
2023-01-19T00:50:19.484Z,89.25
2023-01-19T00:53:09.929Z,90.55
2023-01-19T00:55:50.727Z,90.67
2023-01-19T00:58:19.418Z,91.36
2023-01-19T01:01:05.910Z,90.16
2023-01-19T01:03:55.237Z,89.89
2023-01-19T01:06:30.311Z,91.33
2023-01-19T01:08:57.625Z,91.74
2023-01-19T01:11:29.089Z,91.08
2023-01-19T01:13:56.785Z,91.93
2023-01-19T01:16:24.523Z,91.52
2023-01-19T01:18:57.100Z,92.95
2023-01-19T01:21:46.483Z,92.51
2023-01-19T01:24:18.472Z,93.04
2023-01-19T01:27:06.882Z,93.15
2023-01-19T01:29:40.766Z,92.67
2023-01-19T01:32:11.541Z,93.29
2023-01-19T01:34:49.921Z,93.27
2023-01-19T01:37:58.014Z,92.70
2023-01-19T01:40:33.482Z,92.52
2023-01-19T01:43:27.985Z,91.93
2023-01-19T01:46:15.820Z,92.36
2023-01-19T01:48:52.986Z,92.63
2023-01-19T01:51:29.795Z,92.13
2023-01-19T01:54:19.670Z,92.29
2023-01-19T01:56:52.660Z,92.38
2023-01-19T01:59:29.103Z,92.40
2023-01-19T02:02:20.169Z,93.09
2023-01-19T02:04:49.167Z,92.58
2023-01-19T02:07:49.333Z,92.57
2023-01-19T02:10:29.476Z,92.83
2023-01-19T02:13:20.484Z,91.75
2023-01-19T02:16:09.868Z,91.17
2023-01-19T02:18:48.383Z,91.05
2023-01-19T02:21:31.185Z,90.61
2023-01-19T02:24:02.262Z,90.42
2023-01-19T02:26:35.129Z,90.83
2023-01-19T02:29:07.755Z,90.40
2023-01-19T02:31:38.635Z,90.06
2023-01-19T02:34:26.040Z,89.54
2023-01-19T02:37:06.657Z,89.74
2023-01-19T02:39:45.786Z,89.38
2023-01-19T02:42:22.022Z,89.30
2023-01-19T02:44:55.203Z,89.34
2023-01-19T02:47:42.666Z,89.23
2023-01-19T02:50:41.279Z,89.18
2023-01-19T02:53:43.846Z,89.93
2023-01-19T02:56:48.914Z,90.19
2023-01-19T03:00:03.465Z,89.95
2023-01-19T03:03:08.673Z,89.96
2023-01-19T03:06:03.521Z,89.83
2023-01-19T03:08:57.096Z,89.61
2023-01-19T03:12:18.750Z,89.30
2023-01-19T03:14:57.705Z,89.57
2023-01-19T03:17:48.825Z,89.75
2023-01-19T03:20:25.739Z,89.26
2023-01-19T03:23:03.203Z,89.62
2023-01-19T03:25:40.222Z,88.93
2023-01-19T03:28:43.125Z,89.74
2023-01-19T03:31:37.063Z,89.17
2023-01-19T03:34:09.624Z,88.85
2023-01-19T03:37:04.152Z,90.65
2023-01-19T03:39:38.222Z,92.32
2023-01-19T03:42:10.163Z,90.70
2023-01-19T03:44:40.296Z,90.34
2023-01-19T03:47:27.969Z,89.96
2023-01-19T03:49:57.885Z,89.97
2023-01-19T03:52:53.325Z,89.86
2023-01-19T03:55:48.285Z,89.65
2023-01-19T03:58:42.256Z,91.40
2023-01-19T04:01:09.919Z,90.11
2023-01-19T04:03:37.594Z,89.67
2023-01-19T04:06:10.246Z,90.54
2023-01-19T04:08:58.431Z,90.65
2023-01-19T04:11:39.593Z,90.66
2023-01-19T04:14:16.247Z,90.48
2023-01-19T04:16:44.553Z,90.44
2023-01-19T04:19:23.453Z,91.07
2023-01-19T04:21:56.211Z,90.74
2023-01-19T04:24:30.844Z,90.50
2023-01-19T04:27:03.454Z,90.78
2023-01-19T04:29:32.655Z,92.24
2023-01-19T04:32:13.765Z,92.97
2023-01-19T04:35:01.656Z,92.75
2023-01-19T04:37:30.167Z,93.41
2023-01-19T04:40:03.883Z,92.15
2023-01-19T04:42:51.310Z,91.72
2023-01-19T04:45:18.946Z,91.60
2023-01-19T04:48:10.750Z,91.20
2023-01-19T04:50:41.191Z,91.03
2023-01-19T04:53:15.819Z,90.83
2023-01-19T04:55:49.293Z,90.48
2023-01-19T04:58:18.209Z,90.16
2023-01-19T05:00:56.035Z,90.19
2023-01-19T05:03:26.826Z,90.37
2023-01-19T05:05:59.031Z,90.49
2023-01-19T05:08:26.692Z,90.74
2023-01-19T05:10:54.056Z,91.05
2023-01-19T05:13:21.606Z,91.78
2023-01-19T05:15:55.559Z,91.95
2023-01-19T05:18:22.338Z,91.86
2023-01-19T05:21:08.995Z,92.77
2023-01-19T05:23:36.185Z,91.37
2023-01-19T05:26:07.649Z,91.11
2023-01-19T05:28:39.497Z,91.06
2023-01-19T05:31:08.188Z,92.52
2023-01-19T05:33:38.881Z,92.51
2023-01-19T05:36:27.265Z,91.84
2023-01-19T05:38:56.024Z,91.64
2023-01-19T05:41:38.710Z,91.12
2023-01-19T05:44:15.558Z,90.56
2023-01-19T05:46:56.331Z,90.49
2023-01-19T05:49:25.011Z,90.52
2023-01-19T05:52:48.374Z,90.61
2023-01-19T05:55:16.189Z,91.54
2023-01-19T05:57:43.461Z,90.84
2023-01-19T06:00:10.815Z,91.05
2023-01-19T06:02:37.294Z,90.78
2023-01-19T06:05:04.146Z,90.90
2023-01-19T06:07:31.277Z,91.61
2023-01-19T06:09:58.228Z,90.87
2023-01-19T06:12:24.665Z,91.03
2023-01-19T06:14:51.321Z,90.90
2023-01-19T06:17:18.443Z,91.24
2023-01-19T06:19:47.691Z,90.99
2023-01-19T06:22:14.503Z,90.70
2023-01-19T06:24:41.768Z,91.34
2023-01-19T06:27:08.460Z,90.82
2023-01-19T06:29:36.043Z,90.79
2023-01-19T06:32:02.628Z,90.99
2023-01-19T06:34:29.298Z,90.91
2023-01-19T06:36:56.165Z,90.66
2023-01-19T06:39:23.162Z,90.23
2023-01-19T06:41:50.192Z,90.44
2023-01-19T06:44:17.304Z,90.20
2023-01-19T06:46:43.881Z,92.25
2023-01-19T06:49:10.523Z,92.33
2023-01-19T06:51:37.388Z,94.48
2023-01-19T06:54:04.577Z,94.79
2023-01-19T06:56:31.150Z,94.37
2023-01-19T06:58:57.819Z,94.18
2023-01-19T07:01:24.791Z,93.20
2023-01-19T07:03:51.527Z,93.16
2023-01-19T07:06:18.715Z,92.63
2023-01-19T07:08:45.552Z,92.57
2023-01-19T07:11:25.800Z,92.55
2023-01-19T07:13:58.422Z,92.46
2023-01-19T07:16:27.769Z,92.28
2023-01-19T07:18:54.804Z,92.04
2023-01-19T07:21:23.278Z,91.69
2023-01-19T07:23:54.716Z,91.51
2023-01-19T07:26:24.482Z,91.54
2023-01-19T07:28:55.175Z,91.37
2023-01-19T07:31:31.198Z,90.80
2023-01-19T07:34:11.722Z,90.73
2023-01-19T07:36:42.529Z,90.80
2023-01-19T07:39:23.140Z,91.14
2023-01-19T07:43:20.272Z,90.92
2023-01-19T07:53:29.708Z,90.28
2023-01-19T07:57:08.458Z,89.75
2023-01-19T08:04:41.628Z,88.20
2023-01-19T08:07:15.906Z,88.26
2023-01-19T08:09:43.533Z,88.12
2023-01-19T08:12:15.455Z,87.21
2023-01-19T08:14:43.899Z,86.73
2023-01-19T08:17:17.288Z,87.03
2023-01-19T08:20:10.711Z,86.86
2023-01-19T08:22:50.105Z,86.71
2023-01-19T08:25:31.252Z,86.50
2023-01-19T08:28:02.709Z,86.41
2023-01-19T08:30:29.780Z,86.76
2023-01-19T08:33:10.044Z,86.97
2023-01-19T08:36:13.975Z,86.96
2023-01-19T08:40:18.399Z,86.18
2023-01-19T08:43:39.067Z,86.02
2023-01-19T08:46:12.640Z,85.84
2023-01-19T08:48:40.331Z,85.42
2023-01-19T08:51:17.346Z,83.51
2023-01-19T08:53:55.300Z,83.76
2023-01-19T08:56:28.559Z,82.74
2023-01-19T09:02:00.065Z,82.40
2023-01-19T09:04:29.133Z,81.24
2023-01-19T09:06:56.061Z,82.36
2023-01-19T09:09:25.021Z,81.49
2023-01-19T09:11:55.210Z,81.64
2023-01-19T09:14:24.967Z,81.63
2023-01-19T09:16:53.351Z,81.28
2023-01-19T09:19:30.487Z,81.63
2023-01-19T09:22:14.281Z,82.20
2023-01-19T09:24:56.073Z,79.72
2023-01-19T09:27:25.518Z,79.70
2023-01-19T09:30:17.575Z,79.50
2023-01-19T09:32:51.303Z,78.65
2023-01-19T09:35:18.836Z,79.14
2023-01-19T09:37:51.651Z,79.62
2023-01-19T09:40:22.505Z,78.13
2023-01-19T09:43:01.506Z,78.05
2023-01-19T09:45:51.914Z,76.50
2023-01-19T09:48:49.652Z,78.32
2023-01-19T09:51:26.809Z,76.13
2023-01-19T09:54:04.547Z,73.53
2023-01-19T09:56:34.039Z,74.50
2023-01-19T09:59:38.574Z,74.73
2023-01-19T10:02:44.181Z,72.11
2023-01-19T10:05:41.349Z,71.23
2023-01-19T10:08:34.819Z,72.29
2023-01-19T10:11:19.579Z,72.83
2023-01-19T10:13:52.238Z,72.82
2023-01-19T10:16:48.275Z,72.73
2023-01-19T10:19:43.726Z,72.79
2023-01-19T10:22:26.212Z,72.45
2023-01-19T10:24:59.569Z,72.35
2023-01-19T10:27:29.638Z,71.09
2023-01-19T10:29:58.305Z,71.32
2023-01-19T10:32:29.738Z,71.22
2023-01-19T10:35:00.343Z,70.89
2023-01-19T10:37:32.211Z,70.28
2023-01-19T10:40:21.985Z,69.85
2023-01-19T10:42:48.661Z,69.38
2023-01-19T10:45:25.460Z,69.93
2023-01-19T10:47:53.997Z,68.73
2023-01-19T10:50:34.717Z,68.34
2023-01-19T10:53:06.197Z,68.45
2023-01-19T10:55:38.385Z,68.33
2023-01-19T10:58:25.096Z,68.65
2023-01-19T11:00:58.722Z,67.14
2023-01-19T11:03:31.869Z,66.81
2023-01-19T11:06:21.460Z,66.37
2023-01-19T11:08:51.311Z,66.76
2023-01-19T11:11:22.720Z,66.69
2023-01-19T11:14:29.188Z,65.93
2023-01-19T11:17:00.203Z,66.09
2023-01-19T11:19:33.689Z,65.02
2023-01-19T11:22:38.696Z,64.35
2023-01-19T11:25:21.339Z,60.08
2023-01-19T11:27:52.495Z,60.65
2023-01-19T11:30:24.083Z,59.58
2023-01-19T11:32:51.757Z,58.57
2023-01-19T11:35:39.428Z,56.78
2023-01-19T11:38:24.939Z,56.50
2023-01-19T11:40:56.482Z,54.85
2023-01-19T11:43:36.622Z,55.12
2023-01-19T11:46:16.294Z,54.07
2023-01-19T11:48:56.437Z,54.82
2023-01-19T11:51:27.330Z,54.41
2023-01-19T11:53:55.752Z,54.32
2023-01-19T11:56:28.493Z,55.16
2023-01-19T11:58:58.413Z,54.76
2023-01-19T12:01:32.563Z,55.16
2023-01-19T12:04:31.198Z,55.87
2023-01-19T12:07:07.851Z,55.48
2023-01-19T12:09:49.097Z,56.01
2023-01-19T12:12:30.639Z,55.96
2023-01-19T12:15:07.668Z,56.81
2023-01-19T12:17:52.954Z,55.99
2023-01-19T12:20:35.989Z,56.43
2023-01-19T12:23:21.336Z,56.22
2023-01-19T12:26:30.228Z,56.18
2023-01-19T12:29:25.613Z,55.78
2023-01-19T12:32:31.508Z,55.55
2023-01-19T12:35:11.386Z,55.56
2023-01-19T12:38:36.708Z,52.91
2023-01-19T12:41:27.781Z,51.68
2023-01-19T12:44:19.929Z,50.50
2023-01-19T12:47:08.522Z,49.32
2023-01-19T12:49:45.231Z,47.97
2023-01-19T12:52:23.795Z,46.66
2023-01-19T12:55:20.460Z,45.69
2023-01-19T12:58:23.514Z,45.12
2023-01-19T13:01:30.597Z,45.59
2023-01-19T13:11:12.736Z,47.70
2023-01-19T13:15:33.570Z,50.14
2023-01-19T13:22:11.348Z,51.53
2023-01-19T13:24:53.676Z,52.20
2023-01-19T13:27:49.985Z,52.29
2023-01-19T13:31:35.773Z,52.44
2023-01-19T13:38:28.563Z,54.07
2023-01-19T13:41:41.867Z,54.56
2023-01-19T14:24:41.968Z,56.51
2023-01-19T14:28:21.529Z,57.07
2023-01-19T14:31:25.411Z,57.32
2023-01-19T14:34:01.112Z,57.48
2023-01-19T14:36:46.109Z,57.72
2023-01-19T14:39:36.206Z,58.20
2023-01-19T14:42:57.838Z,58.23
2023-01-19T14:49:55.281Z,58.35
2023-01-19T14:52:35.196Z,58.46
2023-01-19T14:55:24.137Z,59.06
2023-01-19T14:58:19.159Z,58.94
2023-01-19T15:04:07.908Z,59.03
2023-01-19T15:26:52.090Z,60.29
2023-01-19T15:29:32.250Z,60.18
2023-01-19T15:32:25.852Z,60.18
2023-01-19T15:35:59.711Z,60.20
2023-01-19T15:39:28.464Z,60.74
2023-01-19T15:42:41.693Z,60.69
2023-01-19T15:50:14.446Z,60.22
2023-01-19T15:54:06.392Z,60.27
2023-01-19T15:58:05.154Z,60.61
2023-01-19T16:05:41.957Z,60.38
2023-01-19T16:19:56.371Z,59.86
2023-01-19T17:01:52.225Z,70.15
2023-01-19T17:18:18.532Z,70.35
2023-01-19T17:25:44.308Z,74.51
2023-01-19T17:29:15.356Z,72.55
2023-01-19T17:33:12.631Z,72.79
2023-01-19T17:37:12.177Z,72.66
2023-01-19T17:40:51.398Z,73.68
2023-01-19T17:44:23.670Z,73.63
2023-01-19T17:47:54.247Z,73.29
2023-01-19T17:55:41.383Z,73.96
2023-01-19T17:59:27.196Z,73.66
2023-01-19T18:03:11.326Z,73.40
2023-01-19T18:06:45.374Z,73.57
2023-01-19T18:10:14.564Z,73.14
2023-01-19T18:13:28.234Z,73.56
2023-01-19T18:16:51.294Z,74.13
2023-01-19T18:19:57.320Z,73.29
2023-01-19T18:22:25.485Z,73.04
2023-01-19T18:25:13.264Z,73.00
2023-01-19T18:27:41.409Z,74.02
2023-01-19T18:30:09.841Z,74.37
2023-01-19T18:33:09.523Z,73.72
2023-01-19T18:35:39.243Z,73.49
2023-01-19T18:38:28.398Z,73.94
2023-01-19T18:41:12.450Z,73.60
2023-01-19T18:43:40.746Z,73.77
2023-01-19T18:46:09.522Z,73.85
2023-01-19T18:48:38.316Z,74.09
2023-01-19T18:51:09.021Z,74.45
2023-01-19T18:53:38.513Z,74.34
2023-01-19T18:56:30.813Z,74.20
2023-01-19T18:59:14.016Z,74.40
2023-01-19T19:01:42.296Z,74.30
2023-01-19T19:04:12.946Z,74.02
2023-01-19T19:06:40.830Z,73.86
2023-01-19T19:09:14.029Z,73.68
2023-01-19T19:11:43.582Z,73.47
2023-01-19T19:14:33.961Z,73.48
2023-01-19T19:17:03.416Z,73.02
2023-01-19T19:19:31.744Z,72.62
2023-01-19T19:22:16.593Z,72.65
2023-01-19T19:24:51.740Z,72.34
2023-01-19T19:27:20.224Z,72.21
2023-01-19T19:29:49.083Z,71.95
2023-01-19T19:32:21.899Z,71.58
2023-01-19T19:35:24.410Z,71.74
2023-01-19T19:37:58.032Z,71.71
2023-01-19T19:40:45.502Z,71.96
2023-01-19T19:43:23.115Z,72.21
2023-01-19T19:46:05.283Z,72.29
2023-01-19T19:48:34.394Z,72.44
2023-01-19T19:51:27.082Z,72.57
2023-01-19T19:54:10.536Z,72.73
2023-01-19T19:57:21.930Z,73.03
2023-01-19T20:00:48.244Z,72.78
2023-01-19T20:03:34.288Z,72.56
2023-01-19T20:08:13.234Z,72.72
2023-01-19T20:10:17.263Z,73.03
2023-01-19T20:13:39.955Z,74.55
2023-01-19T20:20:13.635Z,74.28
2023-01-19T20:23:31.385Z,74.12
2023-01-19T20:26:34.544Z,73.96
2023-01-19T20:33:19.089Z,73.50
2023-01-19T20:36:24.579Z,73.62
2023-01-19T20:44:07.429Z,74.04
2023-01-19T20:47:40.940Z,73.80
2023-01-19T20:50:47.402Z,74.09
2023-01-19T20:54:32.909Z,74.18
2023-01-19T20:57:45.131Z,73.60
2023-01-19T21:01:01.407Z,73.47
2023-01-19T21:04:30.339Z,73.82
2023-01-19T21:07:56.678Z,73.41
2023-01-19T21:11:29.635Z,73.14
2023-01-19T21:14:36.784Z,73.17
2023-01-19T21:17:32.500Z,73.08
2023-01-19T21:20:58.164Z,73.06
2023-01-19T21:24:20.008Z,72.82
2023-01-19T21:27:17.371Z,72.77
2023-01-19T21:29:45.302Z,72.72
2023-01-19T21:32:13.251Z,72.62
2023-01-19T21:34:44.259Z,72.73
2023-01-19T21:37:12.086Z,72.62
2023-01-19T21:39:39.946Z,72.64
2023-01-19T21:42:07.823Z,72.73
2023-01-19T21:44:35.739Z,72.56
2023-01-19T21:47:08.945Z,72.60
2023-01-19T21:49:36.953Z,72.62
2023-01-19T21:52:05.069Z,72.86
2023-01-19T21:54:33.224Z,72.77
2023-01-19T21:57:03.242Z,72.91
2023-01-19T21:59:31.150Z,72.97
2023-01-19T22:01:59.205Z,73.11
2023-01-19T22:04:28.367Z,73.35
2023-01-19T22:06:56.434Z,73.42
2023-01-19T22:09:24.379Z,73.84
2023-01-19T22:11:52.183Z,73.53
2023-01-19T22:14:19.947Z,73.61
2023-01-19T22:16:47.854Z,73.22
2023-01-19T22:19:15.696Z,73.27
2023-01-19T22:21:43.531Z,73.21
2023-01-19T22:24:12.924Z,73.35
2023-01-19T22:26:40.746Z,73.20
2023-01-19T22:29:11.134Z,73.37
2023-01-19T22:31:39.838Z,73.48
2023-01-19T22:34:10.285Z,73.46
2023-01-19T22:36:38.431Z,73.73
2023-01-19T22:39:09.188Z,73.61
2023-01-19T22:41:41.261Z,73.68
2023-01-19T22:44:13.904Z,73.74
2023-01-19T22:46:42.367Z,75.98
2023-01-19T22:49:13.251Z,75.74
2023-01-19T22:51:41.450Z,75.72
2023-01-19T22:54:10.474Z,75.89
2023-01-19T22:56:39.391Z,75.42
2023-01-19T22:59:07.793Z,75.24
2023-01-19T23:01:41.225Z,75.22
2023-01-19T23:04:13.106Z,75.05
2023-01-19T23:06:42.579Z,75.12
2023-01-19T23:09:13.655Z,75.05
2023-01-19T23:11:44.176Z,74.73
2023-01-19T23:14:15.686Z,75.47
2023-01-19T23:16:43.551Z,76.11
2023-01-19T23:19:12.413Z,78.10
2023-01-19T23:21:41.041Z,78.40
2023-01-19T23:24:09.214Z,78.98
2023-01-19T23:26:38.439Z,78.33
2023-01-19T23:29:11.269Z,77.54
2023-01-19T23:31:42.651Z,77.63
2023-01-19T23:34:12.418Z,77.51
2023-01-19T23:36:42.459Z,78.87
2023-01-19T23:39:18.023Z,79.26
2023-01-19T23:41:46.897Z,79.16
2023-01-19T23:44:15.574Z,78.37
2023-01-19T23:46:44.008Z,78.06
2023-01-19T23:49:12.749Z,77.65
2023-01-19T23:51:41.303Z,77.88
2023-01-19T23:54:09.405Z,79.17
2023-01-19T23:56:38.703Z,79.62
2023-01-19T23:59:10.043Z,79.81
